sensor_id;sensor_type;location;lat;lon;timestamp;P1;durP1;ratioP1;P2;durP2;ratioP2
47960;SDS011;33721;48.852;9.936;2023-07-13T00:01:47;3.65;;;2.22;;
47960;SDS011;33721;48.852;9.936;2023-07-13T00:04:15;3.40;;;1.88;;
47960;SDS011;33721;48.852;9.936;2023-07-13T00:06:42;3.33;;;1.90;;
47960;SDS011;33721;48.852;9.936;2023-07-13T00:09:10;4.75;;;1.83;;
47960;SDS011;33721;48.852;9.936;2023-07-13T00:11:38;7.43;;;2.50;;
47960;SDS011;33721;48.852;9.936;2023-07-13T00:14:04;4.68;;;2.03;;
47960;SDS011;33721;48.852;9.936;2023-07-13T00:16:30;4.72;;;2.15;;
47960;SDS011;33721;48.852;9.936;2023-07-13T00:18:56;3.97;;;2.10;;
47960;SDS011;33721;48.852;9.936;2023-07-13T00:21:21;4.78;;;2.20;;
47960;SDS011;33721;48.852;9.936;2023-07-13T00:23:48;8.20;;;2.28;;
47960;SDS011;33721;48.852;9.936;2023-07-13T00:26:13;3.70;;;2.22;;
47960;SDS011;33721;48.852;9.936;2023-07-13T00:28:39;3.80;;;2.20;;
47960;SDS011;33721;48.852;9.936;2023-07-13T00:31:07;5.60;;;2.38;;
47960;SDS011;33721;48.852;9.936;2023-07-13T00:33:33;5.38;;;2.22;;
47960;SDS011;33721;48.852;9.936;2023-07-13T00:35:58;3.45;;;2.20;;
47960;SDS011;33721;48.852;9.936;2023-07-13T00:38:24;5.82;;;2.00;;
47960;SDS011;33721;48.852;9.936;2023-07-13T00:40:50;3.70;;;2.10;;
47960;SDS011;33721;48.852;9.936;2023-07-13T00:43:17;6.32;;;2.10;;
47960;SDS011;33721;48.852;9.936;2023-07-13T00:48:14;7.30;;;2.17;;
47960;SDS011;33721;48.852;9.936;2023-07-13T00:50:52;7.30;;;2.67;;
47960;SDS011;33721;48.852;9.936;2023-07-13T00:53:20;6.57;;;1.95;;
47960;SDS011;33721;48.852;9.936;2023-07-13T00:55:50;8.10;;;2.25;;
47960;SDS011;33721;48.852;9.936;2023-07-13T00:58:18;5.07;;;2.17;;
47960;SDS011;33721;48.852;9.936;2023-07-13T01:00:44;6.88;;;2.40;;
47960;SDS011;33721;48.852;9.936;2023-07-13T01:03:12;5.78;;;2.20;;
47960;SDS011;33721;48.852;9.936;2023-07-13T01:05:38;5.20;;;2.10;;
47960;SDS011;33721;48.852;9.936;2023-07-13T01:08:04;4.97;;;2.10;;
47960;SDS011;33721;48.852;9.936;2023-07-13T01:10:31;4.20;;;2.10;;
47960;SDS011;33721;48.852;9.936;2023-07-13T01:13:03;4.47;;;2.00;;
47960;SDS011;33721;48.852;9.936;2023-07-13T01:18:18;6.00;;;2.17;;
47960;SDS011;33721;48.852;9.936;2023-07-13T01:21:04;5.72;;;2.20;;
47960;SDS011;33721;48.852;9.936;2023-07-13T01:23:30;4.22;;;1.70;;
47960;SDS011;33721;48.852;9.936;2023-07-13T01:25:57;4.90;;;1.58;;
47960;SDS011;33721;48.852;9.936;2023-07-13T01:28:24;5.43;;;1.73;;
47960;SDS011;33721;48.852;9.936;2023-07-13T01:30:52;8.27;;;2.17;;
47960;SDS011;33721;48.852;9.936;2023-07-13T01:33:18;4.15;;;1.75;;
47960;SDS011;33721;48.852;9.936;2023-07-13T01:35:44;6.75;;;1.75;;
47960;SDS011;33721;48.852;9.936;2023-07-13T01:38:12;5.90;;;1.55;;
47960;SDS011;33721;48.852;9.936;2023-07-13T01:40:43;6.38;;;1.80;;
47960;SDS011;33721;48.852;9.936;2023-07-13T01:43:09;12.63;;;2.10;;
47960;SDS011;33721;48.852;9.936;2023-07-13T01:45:35;11.85;;;1.92;;
47960;SDS011;33721;48.852;9.936;2023-07-13T01:48:01;5.53;;;1.75;;
47960;SDS011;33721;48.852;9.936;2023-07-13T01:50:27;6.13;;;2.00;;
47960;SDS011;33721;48.852;9.936;2023-07-13T01:52:53;3.17;;;1.80;;
47960;SDS011;33721;48.852;9.936;2023-07-13T01:55:18;6.80;;;1.67;;
47960;SDS011;33721;48.852;9.936;2023-07-13T01:57:45;6.47;;;1.70;;
47960;SDS011;33721;48.852;9.936;2023-07-13T02:00:11;5.05;;;1.70;;
47960;SDS011;33721;48.852;9.936;2023-07-13T02:02:38;9.57;;;2.25;;
47960;SDS011;33721;48.852;9.936;2023-07-13T02:05:04;7.45;;;2.00;;
47960;SDS011;33721;48.852;9.936;2023-07-13T02:07:31;6.28;;;2.00;;
47960;SDS011;33721;48.852;9.936;2023-07-13T02:09:56;4.90;;;1.70;;
47960;SDS011;33721;48.852;9.936;2023-07-13T02:12:22;3.85;;;1.70;;
47960;SDS011;33721;48.852;9.936;2023-07-13T02:14:48;4.25;;;1.80;;
47960;SDS011;33721;48.852;9.936;2023-07-13T02:17:13;7.88;;;1.75;;
47960;SDS011;33721;48.852;9.936;2023-07-13T02:19:39;13.30;;;1.83;;
47960;SDS011;33721;48.852;9.936;2023-07-13T02:22:05;4.57;;;1.90;;
47960;SDS011;33721;48.852;9.936;2023-07-13T02:24:34;4.72;;;1.90;;
47960;SDS011;33721;48.852;9.936;2023-07-13T02:26:59;3.47;;;2.10;;
47960;SDS011;33721;48.852;9.936;2023-07-13T02:29:25;6.45;;;2.38;;
47960;SDS011;33721;48.852;9.936;2023-07-13T02:31:51;8.52;;;2.05;;
47960;SDS011;33721;48.852;9.936;2023-07-13T02:34:16;6.75;;;2.17;;
47960;SDS011;33721;48.852;9.936;2023-07-13T02:36:42;10.52;;;1.73;;
47960;SDS011;33721;48.852;9.936;2023-07-13T02:39:08;5.03;;;2.17;;
47960;SDS011;33721;48.852;9.936;2023-07-13T02:41:36;8.25;;;2.13;;
47960;SDS011;33721;48.852;9.936;2023-07-13T02:44:02;8.27;;;2.00;;
47960;SDS011;33721;48.852;9.936;2023-07-13T02:46:29;6.45;;;2.05;;
47960;SDS011;33721;48.852;9.936;2023-07-13T02:48:55;7.60;;;2.58;;
47960;SDS011;33721;48.852;9.936;2023-07-13T02:51:21;7.10;;;2.55;;
47960;SDS011;33721;48.852;9.936;2023-07-13T02:53:47;4.13;;;1.98;;
47960;SDS011;33721;48.852;9.936;2023-07-13T02:56:12;7.30;;;2.38;;
47960;SDS011;33721;48.852;9.936;2023-07-13T02:58:38;5.82;;;2.22;;
47960;SDS011;33721;48.852;9.936;2023-07-13T03:01:07;5.15;;;1.85;;
47960;SDS011;33721;48.852;9.936;2023-07-13T03:03:35;7.10;;;2.20;;
47960;SDS011;33721;48.852;9.936;2023-07-13T03:06:01;4.60;;;1.95;;
47960;SDS011;33721;48.852;9.936;2023-07-13T03:08:30;4.30;;;1.85;;
47960;SDS011;33721;48.852;9.936;2023-07-13T03:10:59;5.35;;;1.95;;
47960;SDS011;33721;48.852;9.936;2023-07-13T03:13:26;4.13;;;2.10;;
47960;SDS011;33721;48.852;9.936;2023-07-13T03:15:51;5.03;;;2.20;;
47960;SDS011;33721;48.852;9.936;2023-07-13T03:18:17;7.07;;;2.28;;
47960;SDS011;33721;48.852;9.936;2023-07-13T03:20:43;7.20;;;2.15;;
47960;SDS011;33721;48.852;9.936;2023-07-13T03:23:08;3.80;;;2.08;;
47960;SDS011;33721;48.852;9.936;2023-07-13T03:25:34;5.75;;;2.45;;
47960;SDS011;33721;48.852;9.936;2023-07-13T03:28:00;8.13;;;2.33;;
47960;SDS011;33721;48.852;9.936;2023-07-13T03:30:25;10.68;;;1.98;;
47960;SDS011;33721;48.852;9.936;2023-07-13T03:32:51;5.53;;;2.05;;
47960;SDS011;33721;48.852;9.936;2023-07-13T03:35:17;5.80;;;2.20;;
47960;SDS011;33721;48.852;9.936;2023-07-13T03:37:42;8.00;;;2.10;;
47960;SDS011;33721;48.852;9.936;2023-07-13T03:40:08;8.80;;;2.17;;
47960;SDS011;33721;48.852;9.936;2023-07-13T03:42:35;6.35;;;2.30;;
47960;SDS011;33721;48.852;9.936;2023-07-13T03:45:01;5.22;;;2.17;;
47960;SDS011;33721;48.852;9.936;2023-07-13T03:47:26;5.57;;;2.10;;
47960;SDS011;33721;48.852;9.936;2023-07-13T03:49:52;3.45;;;1.80;;
47960;SDS011;33721;48.852;9.936;2023-07-13T03:52:18;4.55;;;2.35;;
47960;SDS011;33721;48.852;9.936;2023-07-13T03:54:44;4.28;;;2.15;;
47960;SDS011;33721;48.852;9.936;2023-07-13T03:57:09;7.35;;;2.35;;
47960;SDS011;33721;48.852;9.936;2023-07-13T03:59:35;6.78;;;2.38;;
47960;SDS011;33721;48.852;9.936;2023-07-13T04:02:01;9.73;;;2.05;;
47960;SDS011;33721;48.852;9.936;2023-07-13T04:04:29;8.20;;;2.83;;
47960;SDS011;33721;48.852;9.936;2023-07-13T04:06:55;6.28;;;2.10;;
47960;SDS011;33721;48.852;9.936;2023-07-13T04:09:23;4.72;;;2.22;;
47960;SDS011;33721;48.852;9.936;2023-07-13T04:11:49;6.93;;;2.58;;
47960;SDS011;33721;48.852;9.936;2023-07-13T04:14:15;7.03;;;2.42;;
47960;SDS011;33721;48.852;9.936;2023-07-13T04:16:41;4.88;;;2.15;;
47960;SDS011;33721;48.852;9.936;2023-07-13T04:19:08;6.70;;;2.35;;
47960;SDS011;33721;48.852;9.936;2023-07-13T04:21:35;6.07;;;2.58;;
47960;SDS011;33721;48.852;9.936;2023-07-13T04:24:02;5.97;;;2.25;;
47960;SDS011;33721;48.852;9.936;2023-07-13T04:26:28;7.95;;;2.58;;
47960;SDS011;33721;48.852;9.936;2023-07-13T04:28:55;4.00;;;2.33;;
47960;SDS011;33721;48.852;9.936;2023-07-13T04:31:21;5.18;;;2.47;;
47960;SDS011;33721;48.852;9.936;2023-07-13T04:33:47;4.55;;;2.40;;
47960;SDS011;33721;48.852;9.936;2023-07-13T04:36:14;6.70;;;2.35;;
47960;SDS011;33721;48.852;9.936;2023-07-13T04:38:40;6.30;;;2.45;;
47960;SDS011;33721;48.852;9.936;2023-07-13T04:41:07;4.90;;;2.20;;
47960;SDS011;33721;48.852;9.936;2023-07-13T04:43:33;7.50;;;2.45;;
47960;SDS011;33721;48.852;9.936;2023-07-13T04:46:10;9.15;;;2.40;;
47960;SDS011;33721;48.852;9.936;2023-07-13T04:48:38;7.57;;;2.70;;
47960;SDS011;33721;48.852;9.936;2023-07-13T04:51:03;5.90;;;2.20;;
47960;SDS011;33721;48.852;9.936;2023-07-13T04:53:30;5.32;;;2.22;;
47960;SDS011;33721;48.852;9.936;2023-07-13T04:55:56;6.25;;;2.72;;
47960;SDS011;33721;48.852;9.936;2023-07-13T04:58:22;7.45;;;2.88;;
47960;SDS011;33721;48.852;9.936;2023-07-13T05:00:48;5.82;;;2.30;;
47960;SDS011;33721;48.852;9.936;2023-07-13T05:03:14;6.38;;;2.60;;
47960;SDS011;33721;48.852;9.936;2023-07-13T05:05:40;7.55;;;2.70;;
47960;SDS011;33721;48.852;9.936;2023-07-13T05:08:05;5.47;;;2.17;;
47960;SDS011;33721;48.852;9.936;2023-07-13T05:10:32;6.18;;;2.47;;
47960;SDS011;33721;48.852;9.936;2023-07-13T05:12:58;7.07;;;2.50;;
47960;SDS011;33721;48.852;9.936;2023-07-13T05:15:23;8.68;;;2.40;;
47960;SDS011;33721;48.852;9.936;2023-07-13T05:17:50;13.52;;;2.42;;
47960;SDS011;33721;48.852;9.936;2023-07-13T05:20:16;5.70;;;2.47;;
47960;SDS011;33721;48.852;9.936;2023-07-13T05:22:45;4.50;;;2.80;;
47960;SDS011;33721;48.852;9.936;2023-07-13T05:25:15;4.75;;;2.53;;
47960;SDS011;33721;48.852;9.936;2023-07-13T05:27:41;8.50;;;2.65;;
47960;SDS011;33721;48.852;9.936;2023-07-13T05:30:07;6.97;;;2.65;;
47960;SDS011;33721;48.852;9.936;2023-07-13T05:32:39;5.22;;;2.50;;
47960;SDS011;33721;48.852;9.936;2023-07-13T05:35:06;5.90;;;2.20;;
47960;SDS011;33721;48.852;9.936;2023-07-13T05:37:32;5.15;;;2.22;;
47960;SDS011;33721;48.852;9.936;2023-07-13T05:39:57;3.70;;;2.10;;
47960;SDS011;33721;48.852;9.936;2023-07-13T05:42:23;8.68;;;2.42;;
47960;SDS011;33721;48.852;9.936;2023-07-13T05:44:49;4.22;;;2.28;;
47960;SDS011;33721;48.852;9.936;2023-07-13T05:47:15;5.68;;;2.65;;
47960;SDS011;33721;48.852;9.936;2023-07-13T05:49:40;8.63;;;2.55;;
47960;SDS011;33721;48.852;9.936;2023-07-13T05:52:06;4.45;;;2.35;;
47960;SDS011;33721;48.852;9.936;2023-07-13T05:54:32;7.60;;;2.42;;
47960;SDS011;33721;48.852;9.936;2023-07-13T05:56:58;12.65;;;2.50;;
47960;SDS011;33721;48.852;9.936;2023-07-13T05:59:23;4.68;;;2.55;;
47960;SDS011;33721;48.852;9.936;2023-07-13T06:01:50;5.13;;;2.50;;
47960;SDS011;33721;48.852;9.936;2023-07-13T06:04:17;5.68;;;2.40;;
47960;SDS011;33721;48.852;9.936;2023-07-13T06:06:43;6.90;;;2.50;;
47960;SDS011;33721;48.852;9.936;2023-07-13T06:09:08;5.25;;;2.42;;
47960;SDS011;33721;48.852;9.936;2023-07-13T06:11:34;6.80;;;2.42;;
47960;SDS011;33721;48.852;9.936;2023-07-13T06:14:00;7.68;;;2.25;;
47960;SDS011;33721;48.852;9.936;2023-07-13T06:16:26;3.75;;;2.38;;
47960;SDS011;33721;48.852;9.936;2023-07-13T06:18:51;6.28;;;2.70;;
47960;SDS011;33721;48.852;9.936;2023-07-13T06:21:18;8.10;;;2.55;;
47960;SDS011;33721;48.852;9.936;2023-07-13T06:23:46;6.72;;;2.33;;
47960;SDS011;33721;48.852;9.936;2023-07-13T06:26:13;8.77;;;2.53;;
47960;SDS011;33721;48.852;9.936;2023-07-13T06:28:39;6.43;;;2.50;;
47960;SDS011;33721;48.852;9.936;2023-07-13T06:31:06;9.63;;;2.92;;
47960;SDS011;33721;48.852;9.936;2023-07-13T06:33:33;7.30;;;3.00;;
47960;SDS011;33721;48.852;9.936;2023-07-13T06:35:59;5.57;;;2.97;;
47960;SDS011;33721;48.852;9.936;2023-07-13T06:38:26;7.57;;;2.90;;
47960;SDS011;33721;48.852;9.936;2023-07-13T06:40:51;4.68;;;2.47;;
47960;SDS011;33721;48.852;9.936;2023-07-13T06:43:17;7.10;;;2.78;;
47960;SDS011;33721;48.852;9.936;2023-07-13T06:45:45;9.20;;;3.00;;
47960;SDS011;33721;48.852;9.936;2023-07-13T06:48:14;5.75;;;3.33;;
47960;SDS011;33721;48.852;9.936;2023-07-13T06:50:43;4.85;;;2.70;;
47960;SDS011;33721;48.852;9.936;2023-07-13T06:53:10;4.60;;;2.58;;
47960;SDS011;33721;48.852;9.936;2023-07-13T06:55:36;6.80;;;3.03;;
47960;SDS011;33721;48.852;9.936;2023-07-13T06:58:02;5.15;;;2.85;;
47960;SDS011;33721;48.852;9.936;2023-07-13T07:00:28;7.55;;;2.78;;
47960;SDS011;33721;48.852;9.936;2023-07-13T07:02:54;5.57;;;2.92;;
47960;SDS011;33721;48.852;9.936;2023-07-13T07:05:19;7.13;;;2.75;;
47960;SDS011;33721;48.852;9.936;2023-07-13T07:07:46;5.40;;;2.83;;
47960;SDS011;33721;48.852;9.936;2023-07-13T07:10:16;4.40;;;2.70;;
47960;SDS011;33721;48.852;9.936;2023-07-13T07:12:42;7.97;;;2.70;;
47960;SDS011;33721;48.852;9.936;2023-07-13T07:15:08;6.00;;;2.90;;
47960;SDS011;33721;48.852;9.936;2023-07-13T07:17:34;5.03;;;2.70;;
47960;SDS011;33721;48.852;9.936;2023-07-13T07:19:59;4.53;;;2.88;;
47960;SDS011;33721;48.852;9.936;2023-07-13T07:22:25;6.82;;;2.80;;
47960;SDS011;33721;48.852;9.936;2023-07-13T07:24:52;7.63;;;2.80;;
47960;SDS011;33721;48.852;9.936;2023-07-13T07:27:18;6.45;;;2.80;;
47960;SDS011;33721;48.852;9.936;2023-07-13T07:29:44;4.78;;;2.50;;
47960;SDS011;33721;48.852;9.936;2023-07-13T07:32:10;6.40;;;2.70;;
47960;SDS011;33721;48.852;9.936;2023-07-13T07:34:35;4.85;;;2.50;;
47960;SDS011;33721;48.852;9.936;2023-07-13T07:37:01;5.95;;;3.08;;
47960;SDS011;33721;48.852;9.936;2023-07-13T07:39:27;13.38;;;2.60;;
47960;SDS011;33721;48.852;9.936;2023-07-13T07:41:54;8.77;;;2.70;;
47960;SDS011;33721;48.852;9.936;2023-07-13T07:44:20;7.05;;;2.60;;
47960;SDS011;33721;48.852;9.936;2023-07-13T07:46:46;15.00;;;2.88;;
47960;SDS011;33721;48.852;9.936;2023-07-13T07:49:12;4.72;;;2.40;;
47960;SDS011;33721;48.852;9.936;2023-07-13T07:51:37;5.30;;;2.53;;
47960;SDS011;33721;48.852;9.936;2023-07-13T07:54:03;6.80;;;2.72;;
47960;SDS011;33721;48.852;9.936;2023-07-13T07:56:30;5.88;;;2.20;;
47960;SDS011;33721;48.852;9.936;2023-07-13T07:58:56;8.75;;;2.20;;
47960;SDS011;33721;48.852;9.936;2023-07-13T08:01:21;8.20;;;2.45;;
47960;SDS011;33721;48.852;9.936;2023-07-13T08:03:48;5.90;;;2.28;;
47960;SDS011;33721;48.852;9.936;2023-07-13T08:06:13;8.35;;;2.63;;
47960;SDS011;33721;48.852;9.936;2023-07-13T08:08:42;12.40;;;2.20;;
47960;SDS011;33721;48.852;9.936;2023-07-13T08:11:08;4.40;;;2.40;;
47960;SDS011;33721;48.852;9.936;2023-07-13T08:13:34;5.32;;;2.22;;
47960;SDS011;33721;48.852;9.936;2023-07-13T08:16:03;6.40;;;2.13;;
47960;SDS011;33721;48.852;9.936;2023-07-13T08:18:30;5.38;;;2.25;;
47960;SDS011;33721;48.852;9.936;2023-07-13T08:20:56;5.15;;;2.20;;
47960;SDS011;33721;48.852;9.936;2023-07-13T08:23:23;10.98;;;2.58;;
47960;SDS011;33721;48.852;9.936;2023-07-13T08:25:50;4.85;;;2.20;;
47960;SDS011;33721;48.852;9.936;2023-07-13T08:28:23;5.68;;;2.03;;
47960;SDS011;33721;48.852;9.936;2023-07-13T08:30:49;5.82;;;1.60;;
47960;SDS011;33721;48.852;9.936;2023-07-13T08:33:16;10.05;;;2.38;;
47960;SDS011;33721;48.852;9.936;2023-07-13T08:35:46;8.65;;;2.47;;
47960;SDS011;33721;48.852;9.936;2023-07-13T08:38:16;6.88;;;2.40;;
47960;SDS011;33721;48.852;9.936;2023-07-13T08:40:43;12.57;;;2.38;;
47960;SDS011;33721;48.852;9.936;2023-07-13T08:43:16;6.72;;;2.42;;
47960;SDS011;33721;48.852;9.936;2023-07-13T08:45:46;6.18;;;2.38;;
47960;SDS011;33721;48.852;9.936;2023-07-13T08:50:46;6.53;;;1.80;;
47960;SDS011;33721;48.852;9.936;2023-07-13T08:53:14;7.55;;;1.80;;
47960;SDS011;33721;48.852;9.936;2023-07-13T08:55:41;4.40;;;1.60;;
47960;SDS011;33721;48.852;9.936;2023-07-13T08:58:40;6.15;;;1.52;;
47960;SDS011;33721;48.852;9.936;2023-07-13T09:03:46;5.13;;;1.30;;
47960;SDS011;33721;48.852;9.936;2023-07-13T09:06:26;3.35;;;1.48;;
47960;SDS011;33721;48.852;9.936;2023-07-13T09:09:08;4.50;;;1.50;;
47960;SDS011;33721;48.852;9.936;2023-07-13T09:16:59;5.78;;;1.30;;
47960;SDS011;33721;48.852;9.936;2023-07-13T09:19:30;5.70;;;1.47;;
47960;SDS011;33721;48.852;9.936;2023-07-13T09:21:58;3.90;;;1.70;;
47960;SDS011;33721;48.852;9.936;2023-07-13T09:24:41;4.45;;;1.60;;
47960;SDS011;33721;48.852;9.936;2023-07-13T09:27:17;5.65;;;1.85;;
47960;SDS011;33721;48.852;9.936;2023-07-13T09:29:55;6.18;;;1.65;;
47960;SDS011;33721;48.852;9.936;2023-07-13T09:32:27;3.28;;;1.73;;
47960;SDS011;33721;48.852;9.936;2023-07-13T09:34:54;3.17;;;1.50;;
47960;SDS011;33721;48.852;9.936;2023-07-13T09:37:21;2.60;;;1.35;;
47960;SDS011;33721;48.852;9.936;2023-07-13T09:39:53;5.40;;;1.95;;
47960;SDS011;33721;48.852;9.936;2023-07-13T09:42:23;3.37;;;1.63;;
47960;SDS011;33721;48.852;9.936;2023-07-13T09:44:55;9.27;;;1.52;;
47960;SDS011;33721;48.852;9.936;2023-07-13T09:47:23;4.80;;;1.58;;
47960;SDS011;33721;48.852;9.936;2023-07-13T09:49:58;4.00;;;1.40;;
47960;SDS011;33721;48.852;9.936;2023-07-13T09:52:24;5.97;;;1.65;;
47960;SDS011;33721;48.852;9.936;2023-07-13T09:54:52;2.72;;;1.23;;
47960;SDS011;33721;48.852;9.936;2023-07-13T09:57:24;3.50;;;1.70;;
47960;SDS011;33721;48.852;9.936;2023-07-13T09:59:52;6.95;;;1.55;;
47960;SDS011;33721;48.852;9.936;2023-07-13T10:04:55;6.35;;;1.80;;
47960;SDS011;33721;48.852;9.936;2023-07-13T10:07:23;5.55;;;1.30;;
47960;SDS011;33721;48.852;9.936;2023-07-13T10:09:53;9.23;;;1.70;;
47960;SDS011;33721;48.852;9.936;2023-07-13T10:12:22;5.20;;;1.88;;
47960;SDS011;33721;48.852;9.936;2023-07-13T10:14:52;10.53;;;1.87;;
47960;SDS011;33721;48.852;9.936;2023-07-13T10:17:29;5.38;;;1.70;;
47960;SDS011;33721;48.852;9.936;2023-07-13T10:20:03;3.83;;;1.83;;
47960;SDS011;33721;48.852;9.936;2023-07-13T10:25:22;8.18;;;1.63;;
47960;SDS011;33721;48.852;9.936;2023-07-13T10:27:51;5.80;;;1.52;;
47960;SDS011;33721;48.852;9.936;2023-07-13T10:32:50;4.88;;;1.40;;
47960;SDS011;33721;48.852;9.936;2023-07-13T10:35:18;7.78;;;1.70;;
47960;SDS011;33721;48.852;9.936;2023-07-13T10:37:55;11.50;;;2.13;;
47960;SDS011;33721;48.852;9.936;2023-07-13T10:40:39;6.55;;;1.75;;
47960;SDS011;33721;48.852;9.936;2023-07-13T10:43:27;3.10;;;1.60;;
47960;SDS011;33721;48.852;9.936;2023-07-13T10:45:57;9.02;;;1.65;;
47960;SDS011;33721;48.852;9.936;2023-07-13T10:48:24;9.00;;;1.60;;
47960;SDS011;33721;48.852;9.936;2023-07-13T10:50:51;4.22;;;1.67;;
47960;SDS011;33721;48.852;9.936;2023-07-13T10:53:20;3.95;;;1.55;;
47960;SDS011;33721;48.852;9.936;2023-07-13T10:58:32;7.50;;;2.00;;
47960;SDS011;33721;48.852;9.936;2023-07-13T11:03:32;2.83;;;1.52;;
47960;SDS011;33721;48.852;9.936;2023-07-13T11:06:09;2.63;;;1.20;;
47960;SDS011;33721;48.852;9.936;2023-07-13T11:18:52;3.05;;;1.80;;
47960;SDS011;33721;48.852;9.936;2023-07-13T11:24:47;7.32;;;1.70;;
47960;SDS011;33721;48.852;9.936;2023-07-13T11:27:21;11.15;;;1.83;;
47960;SDS011;33721;48.852;9.936;2023-07-13T11:32:39;3.42;;;1.38;;
47960;SDS011;33721;48.852;9.936;2023-07-13T11:35:08;5.30;;;1.50;;
47960;SDS011;33721;48.852;9.936;2023-07-13T11:37:40;7.68;;;1.50;;
47960;SDS011;33721;48.852;9.936;2023-07-13T11:40:05;4.15;;;1.50;;
47960;SDS011;33721;48.852;9.936;2023-07-13T11:42:39;5.07;;;1.92;;
47960;SDS011;33721;48.852;9.936;2023-07-13T11:45:14;6.97;;;1.33;;
47960;SDS011;33721;48.852;9.936;2023-07-13T11:47:48;4.28;;;1.60;;
47960;SDS011;33721;48.852;9.936;2023-07-13T11:50:21;3.97;;;1.67;;
47960;SDS011;33721;48.852;9.936;2023-07-13T11:52:49;9.70;;;2.00;;
47960;SDS011;33721;48.852;9.936;2023-07-13T11:55:17;3.90;;;1.77;;
47960;SDS011;33721;48.852;9.936;2023-07-13T11:57:45;5.47;;;1.48;;
47960;SDS011;33721;48.852;9.936;2023-07-13T12:00:17;5.90;;;1.85;;
47960;SDS011;33721;48.852;9.936;2023-07-13T12:02:47;4.50;;;1.38;;
47960;SDS011;33721;48.852;9.936;2023-07-13T12:05:15;4.88;;;1.80;;
47960;SDS011;33721;48.852;9.936;2023-07-13T12:07:44;3.72;;;1.85;;
47960;SDS011;33721;48.852;9.936;2023-07-13T12:10:17;5.00;;;1.80;;
47960;SDS011;33721;48.852;9.936;2023-07-13T12:15:44;2.83;;;1.60;;
47960;SDS011;33721;48.852;9.936;2023-07-13T12:18:21;3.55;;;1.92;;
47960;SDS011;33721;48.852;9.936;2023-07-13T12:20:51;4.60;;;1.87;;
47960;SDS011;33721;48.852;9.936;2023-07-13T12:26:01;7.50;;;1.80;;
47960;SDS011;33721;48.852;9.936;2023-07-13T12:28:31;4.97;;;1.85;;
47960;SDS011;33721;48.852;9.936;2023-07-13T12:31:03;4.95;;;1.80;;
47960;SDS011;33721;48.852;9.936;2023-07-13T12:33:31;5.30;;;1.60;;
47960;SDS011;33721;48.852;9.936;2023-07-13T12:35:59;4.65;;;1.75;;
47960;SDS011;33721;48.852;9.936;2023-07-13T12:38:27;11.18;;;1.67;;
47960;SDS011;33721;48.852;9.936;2023-07-13T12:40:54;3.72;;;1.83;;
47960;SDS011;33721;48.852;9.936;2023-07-13T12:43:21;3.97;;;1.60;;
47960;SDS011;33721;48.852;9.936;2023-07-13T12:45:58;6.03;;;2.10;;
47960;SDS011;33721;48.852;9.936;2023-07-13T12:48:29;4.13;;;1.80;;
47960;SDS011;33721;48.852;9.936;2023-07-13T12:51:03;8.05;;;1.80;;
47960;SDS011;33721;48.852;9.936;2023-07-13T12:53:29;13.85;;;1.92;;
47960;SDS011;33721;48.852;9.936;2023-07-13T12:55:59;6.45;;;1.98;;
47960;SDS011;33721;48.852;9.936;2023-07-13T13:00:57;2.92;;;1.83;;
47960;SDS011;33721;48.852;9.936;2023-07-13T13:03:32;4.57;;;1.70;;
47960;SDS011;33721;48.852;9.936;2023-07-13T13:06:02;3.85;;;1.67;;
47960;SDS011;33721;48.852;9.936;2023-07-13T13:08:33;5.85;;;1.90;;
47960;SDS011;33721;48.852;9.936;2023-07-13T13:11:03;5.20;;;1.90;;
47960;SDS011;33721;48.852;9.936;2023-07-13T13:13:29;6.47;;;2.25;;
47960;SDS011;33721;48.852;9.936;2023-07-13T13:15:55;4.75;;;1.88;;
47960;SDS011;33721;48.852;9.936;2023-07-13T13:18:21;6.65;;;1.70;;
47960;SDS011;33721;48.852;9.936;2023-07-13T13:20:49;4.70;;;1.90;;
47960;SDS011;33721;48.852;9.936;2023-07-13T13:23:17;4.25;;;1.73;;
47960;SDS011;33721;48.852;9.936;2023-07-13T13:25:48;6.05;;;1.90;;
47960;SDS011;33721;48.852;9.936;2023-07-13T13:28:16;13.57;;;1.95;;
47960;SDS011;33721;48.852;9.936;2023-07-13T13:30:44;43.47;;;3.22;;
47960;SDS011;33721;48.852;9.936;2023-07-13T13:33:12;19.05;;;1.88;;
47960;SDS011;33721;48.852;9.936;2023-07-13T13:35:40;3.90;;;1.90;;
47960;SDS011;33721;48.852;9.936;2023-07-13T13:38:13;14.48;;;2.33;;
47960;SDS011;33721;48.852;9.936;2023-07-13T13:40:41;5.07;;;2.30;;
47960;SDS011;33721;48.852;9.936;2023-07-13T13:43:14;3.67;;;1.67;;
47960;SDS011;33721;48.852;9.936;2023-07-13T13:45:45;5.43;;;1.60;;
47960;SDS011;33721;48.852;9.936;2023-07-13T13:48:15;6.13;;;1.83;;
47960;SDS011;33721;48.852;9.936;2023-07-13T13:50:46;3.83;;;1.85;;
47960;SDS011;33721;48.852;9.936;2023-07-13T13:53:13;7.47;;;2.05;;
47960;SDS011;33721;48.852;9.936;2023-07-13T13:55:39;3.47;;;2.08;;
47960;SDS011;33721;48.852;9.936;2023-07-13T13:58:07;2.80;;;1.70;;
47960;SDS011;33721;48.852;9.936;2023-07-13T14:00:33;10.68;;;1.95;;
47960;SDS011;33721;48.852;9.936;2023-07-13T14:03:00;6.22;;;1.90;;
47960;SDS011;33721;48.852;9.936;2023-07-13T14:05:26;5.53;;;1.90;;
47960;SDS011;33721;48.852;9.936;2023-07-13T14:07:52;6.72;;;1.80;;
47960;SDS011;33721;48.852;9.936;2023-07-13T14:10:19;5.93;;;1.92;;
47960;SDS011;33721;48.852;9.936;2023-07-13T14:12:46;5.25;;;1.40;;
47960;SDS011;33721;48.852;9.936;2023-07-13T14:15:20;4.65;;;1.80;;
47960;SDS011;33721;48.852;9.936;2023-07-13T14:17:46;3.67;;;2.00;;
47960;SDS011;33721;48.852;9.936;2023-07-13T14:20:15;7.30;;;1.75;;
47960;SDS011;33721;48.852;9.936;2023-07-13T14:22:42;7.07;;;1.85;;
47960;SDS011;33721;48.852;9.936;2023-07-13T14:25:14;5.53;;;1.60;;
47960;SDS011;33721;48.852;9.936;2023-07-13T14:30:18;12.90;;;1.95;;
47960;SDS011;33721;48.852;9.936;2023-07-13T14:32:45;4.10;;;1.70;;
47960;SDS011;33721;48.852;9.936;2023-07-13T14:35:11;7.43;;;1.85;;
47960;SDS011;33721;48.852;9.936;2023-07-13T14:37:41;13.73;;;1.80;;
47960;SDS011;33721;48.852;9.936;2023-07-13T14:40:12;10.63;;;1.88;;
47960;SDS011;33721;48.852;9.936;2023-07-13T14:42:39;4.68;;;1.92;;
47960;SDS011;33721;48.852;9.936;2023-07-13T14:45:04;4.22;;;1.80;;
47960;SDS011;33721;48.852;9.936;2023-07-13T14:47:31;5.22;;;2.17;;
47960;SDS011;33721;48.852;9.936;2023-07-13T14:49:56;10.43;;;1.80;;
47960;SDS011;33721;48.852;9.936;2023-07-13T14:52:22;9.30;;;1.80;;
47960;SDS011;33721;48.852;9.936;2023-07-13T14:54:50;4.55;;;1.50;;
47960;SDS011;33721;48.852;9.936;2023-07-13T14:57:16;5.85;;;1.88;;
47960;SDS011;33721;48.852;9.936;2023-07-13T14:59:46;11.18;;;2.10;;
47960;SDS011;33721;48.852;9.936;2023-07-13T15:02:16;2.92;;;1.70;;
47960;SDS011;33721;48.852;9.936;2023-07-13T15:04:47;10.75;;;1.70;;
47960;SDS011;33721;48.852;9.936;2023-07-13T15:07:12;8.52;;;2.53;;
47960;SDS011;33721;48.852;9.936;2023-07-13T15:09:40;12.75;;;2.65;;
47960;SDS011;33721;48.852;9.936;2023-07-13T15:12:06;4.88;;;2.00;;
47960;SDS011;33721;48.852;9.936;2023-07-13T15:14:32;6.22;;;2.00;;
47960;SDS011;33721;48.852;9.936;2023-07-13T15:16:58;3.25;;;1.70;;
47960;SDS011;33721;48.852;9.936;2023-07-13T15:19:24;5.95;;;1.95;;
47960;SDS011;33721;48.852;9.936;2023-07-13T15:21:51;8.30;;;2.20;;
47960;SDS011;33721;48.852;9.936;2023-07-13T15:24:19;11.43;;;1.85;;
47960;SDS011;33721;48.852;9.936;2023-07-13T15:26:46;4.60;;;1.95;;
47960;SDS011;33721;48.852;9.936;2023-07-13T15:29:14;6.80;;;1.80;;
47960;SDS011;33721;48.852;9.936;2023-07-13T15:31:40;6.15;;;1.83;;
47960;SDS011;33721;48.852;9.936;2023-07-13T15:34:13;3.97;;;1.80;;
47960;SDS011;33721;48.852;9.936;2023-07-13T15:36:41;4.45;;;1.63;;
47960;SDS011;33721;48.852;9.936;2023-07-13T15:39:08;3.72;;;2.13;;
47960;SDS011;33721;48.852;9.936;2023-07-13T15:41:40;10.65;;;1.80;;
47960;SDS011;33721;48.852;9.936;2023-07-13T15:44:20;8.70;;;1.80;;
47960;SDS011;33721;48.852;9.936;2023-07-13T15:46:51;3.88;;;2.00;;